Terminal Aerodrome Forecast
Issued by NWS St Louis, MO

Home | Current Version | Previous Version | Text Only | Print | Product List | Glossary On
Versions: 1 2 3 4 5 6 7 8 9 10 11 12 13 14 15 16 17 18
931
FTUS43 KLSX 250200 AAA
TAFCOU
TAF AMD
KCOU 250200Z 2502/2524 VRB05KT 6SM -RA VCTS OVC050CB
      TEMPO 2502/2505 2SM +SHRA OVC025
     FM250700 13008KT 6SM BR BKN030
     FM251700 13009KT 6SM -RA VCTS OVC035CB
     FM252100 VRB05KT 5SM -RA BR VCTS OVC025CB=

USA.gov is the U.S. government's official web portal to all federal, state and local government web resources and services.